Time;durP1;ratioP1;P1;durP2;ratioP2;P2;SDS_P1;SDS_P2;PMS_P1;PMS_P2;Temp;Humidity;BMP_temperature;BMP_pressure;BME280_temperature;BME280_humidity;BME280_pressure;Samples;Min_cycle;Max_cycle;Signal;HPM_P1;HPM_P2
2021/09/11 00:00:05;;;;;;;15.75;10.65;;;;;;;14.49;73.66;99496.45;1691872;83;20934;-61
2021/09/11 00:02:34;;;;;;;15.25;11.03;;;;;;;14.40;73.73;99491.81;1681051;83;20942;-61
2021/09/11 00:05:01;;;;;;;17.32;10.58;;;;;;;14.33;73.77;99495.78;1685117;83;20898;-61
2021/09/11 00:07:29;;;;;;;16.65;10.30;;;;;;;14.28;73.99;99492.61;1683941;83;21451;-61
2021/09/11 00:09:56;;;;;;;21.77;10.85;;;;;;;14.27;74.19;99490.94;1697796;82;21054;-61
2021/09/11 00:12:22;;;;;;;14.27;10.30;;;;;;;14.33;74.39;99487.91;1685465;83;20919;-61
2021/09/11 00:14:49;;;;;;;14.27;10.70;;;;;;;14.45;74.52;99487.10;1706704;82;20992;-61
2021/09/11 00:17:16;;;;;;;14.53;11.03;;;;;;;14.58;74.53;99492.39;1696546;83;20878;-61
2021/09/11 00:19:42;;;;;;;19.02;10.38;;;;;;;14.71;74.57;99475.33;1696634;82;20931;-61
2021/09/11 00:22:09;;;;;;;18.00;10.27;;;;;;;14.84;74.58;99481.88;1706918;82;21040;-61
2021/09/11 00:24:36;;;;;;;12.20;9.83;;;;;;;14.93;74.65;99476.85;1693571;82;21454;-61
2021/09/11 00:27:03;;;;;;;15.38;10.20;;;;;;;15.03;74.55;99474.89;1696443;82;21470;-61
2021/09/11 00:29:29;;;;;;;13.68;10.48;;;;;;;15.10;74.52;99472.22;1689863;83;20943;-60
2021/09/11 00:31:56;;;;;;;22.43;11.37;;;;;;;15.07;74.35;99472.41;1711564;82;21347;-61
2021/09/11 00:34:23;;;;;;;11.53;9.90;;;;;;;15.03;74.31;99476.20;1685415;83;21471;-61
2021/09/11 00:36:49;;;;;;;17.23;11.28;;;;;;;14.90;74.21;99477.06;1680293;83;21026;-61
2021/09/11 00:39:16;;;;;;;14.57;10.30;;;;;;;14.77;74.38;99467.02;1690561;82;20946;-61
2021/09/11 00:41:43;;;;;;;13.78;10.45;;;;;;;14.74;74.73;99468.55;1696693;83;20892;-60
2021/09/11 00:44:09;;;;;;;15.57;10.37;;;;;;;14.76;74.90;99474.55;1707408;82;20958;-61
2021/09/11 00:46:36;;;;;;;18.77;10.67;;;;;;;14.80;74.97;99467.28;1688803;83;22349;-60
2021/09/11 00:49:03;;;;;;;11.57;10.07;;;;;;;14.80;74.72;99464.18;1694171;83;20947;-61
2021/09/11 00:51:31;;;;;;;12.88;9.85;;;;;;;14.72;74.62;99470.44;1692457;82;20880;-61
2021/09/11 00:53:59;;;;;;;14.25;10.15;;;;;;;14.61;74.68;99465.06;1697470;82;21418;-61
2021/09/11 00:56:27;;;;;;;16.75;10.48;;;;;;;14.50;74.76;99461.34;1699206;81;20901;-60
2021/09/11 00:58:54;;;;;;;16.62;9.40;;;;;;;14.42;75.00;99461.02;1674899;83;21041;-61
2021/09/11 01:01:20;;;;;;;15.93;9.63;;;;;;;14.36;75.09;99460.59;1686042;82;20929;-61
2021/09/11 01:03:47;;;;;;;12.43;9.53;;;;;;;14.31;75.21;99454.33;1694222;83;20958;-61
2021/09/11 01:06:14;;;;;;;15.20;9.83;;;;;;;14.25;75.23;99458.20;1684506;83;20976;-61
2021/09/11 01:08:41;;;;;;;13.93;9.60;;;;;;;14.21;75.39;99453.27;1686204;83;20958;-60
2021/09/11 01:11:10;;;;;;;13.00;10.08;;;;;;;14.17;75.52;99450.47;1688317;83;21047;-61
2021/09/11 01:13:37;;;;;;;12.88;9.70;;;;;;;14.20;75.82;99451.58;1683157;82;20998;-61
2021/09/11 01:16:05;;;;;;;16.17;10.13;;;;;;;14.23;75.80;99454.02;1683322;83;20966;-60
2021/09/11 01:18:32;;;;;;;11.48;9.40;;;;;;;14.21;75.71;99458.05;1707599;82;20961;-61
2021/09/11 01:20:59;;;;;;;10.78;9.35;;;;;;;14.22;75.76;99462.34;1704644;82;21541;-61
2021/09/11 01:23:27;;;;;;;13.80;9.88;;;;;;;14.18;75.79;99453.48;1701546;82;24205;-61
2021/09/11 01:25:54;;;;;;;14.45;10.48;;;;;;;14.14;75.94;99456.76;1678276;83;20930;-61
2021/09/11 01:28:21;;;;;;;;;;;;;;;14.13;76.03;99463.44;1698691;83;20887;-61
2021/09/11 01:30:48;;;;;;;16.67;10.23;;;;;;;14.14;76.38;99458.55;1705115;82;20462;-61
2021/09/11 01:33:15;;;;;;;10.90;9.80;;;;;;;14.14;76.44;99457.23;1716368;82;20954;-61
2021/09/11 01:35:42;;;;;;;14.87;9.68;;;;;;;14.19;76.54;99457.78;1712209;82;21819;-60
2021/09/11 01:38:09;;;;;;;12.03;10.10;;;;;;;14.23;76.59;99451.40;1702868;82;20965;-60
2021/09/11 01:40:35;;;;;;;12.23;9.83;;;;;;;14.28;76.69;99463.73;1709330;82;20937;-61
2021/09/11 01:43:03;;;;;;;13.80;10.53;;;;;;;14.31;76.68;99460.89;1698305;82;20947;-60
2021/09/11 01:45:29;;;;;;;10.72;9.63;;;;;;;14.35;76.85;99468.95;1698769;83;21018;-60
2021/09/11 01:47:56;;;;;;;11.10;9.48;;;;;;;14.37;76.78;99471.45;1701277;83;21068;-61
2021/09/11 01:50:23;;;;;;;10.63;9.43;;;;;;;14.39;76.78;99469.09;1691983;83;28261;-61
2021/09/11 01:52:51;;;;;;;14.68;10.15;;;;;;;14.38;76.79;99468.74;1707270;82;20965;-61
2021/09/11 01:55:20;;;;;;;12.20;10.00;;;;;;;14.37;76.83;99463.13;1676084;82;20962;-61
2021/09/11 01:57:48;;;;;;;14.15;9.43;;;;;;;14.33;76.74;99460.33;1692263;83;20895;-61
2021/09/11 02:00:18;;;;;;;12.28;9.20;;;;;;;14.27;76.80;99465.99;1699290;82;21184;-61
2021/09/11 02:02:45;;;;;;;12.53;10.32;;;;;;;14.23;77.00;99466.67;1692866;83;21013;-61
2021/09/11 02:05:13;;;;;;;13.65;10.30;;;;;;;14.27;77.15;99465.99;1702876;82;21477;-61
2021/09/11 02:07:40;;;;;;;16.25;9.90;;;;;;;14.28;77.18;99466.34;1704910;82;20887;-61
2021/09/11 02:10:09;;;;;;;12.95;9.98;;;;;;;14.30;77.25;99464.47;1701035;82;21937;-61
2021/09/11 02:12:36;;;;;;;11.08;9.53;;;;;;;14.32;77.32;99466.05;1729382;80;21543;-61
2021/09/11 02:15:05;;;;;;;14.35;9.45;;;;;;;14.33;77.34;99460.33;1749530;80;21001;-61
2021/09/11 02:17:31;;;;;;;12.85;9.78;;;;;;;14.32;77.38;99466.05;1754760;80;20855;-61
2021/09/11 02:19:58;;;;;;;15.60;10.30;;;;;;;14.30;77.44;99465.78;1753637;78;20875;-61
2021/09/11 02:22:25;;;;;;;16.83;9.80;;;;;;;14.28;77.43;99466.34;1735553;80;20914;-60
2021/09/11 02:25:11;;;;;;;13.43;10.40;;;;;;;14.25;77.60;99458.67;1743894;80;21011;-61
2021/09/11 02:27:40;;;;;;;13.48;10.23;;;;;;;14.26;77.71;99465.63;1719174;80;21495;-61
2021/09/11 02:30:08;;;;;;;11.78;10.28;;;;;;;14.29;77.79;99465.42;1751332;80;20922;-61
2021/09/11 02:32:35;;;;;;;12.43;10.00;;;;;;;14.30;77.83;99462.68;1742261;80;20973;-61
2021/09/11 02:35:01;;;;;;;14.57;10.87;;;;;;;14.32;77.87;99461.28;1750938;80;20913;-61
2021/09/11 02:37:28;;;;;;;16.52;10.40;;;;;;;14.32;77.83;99466.53;1766123;79;21024;-61
2021/09/11 02:39:54;;;;;;;18.67;10.07;;;;;;;14.29;77.88;99462.80;1741850;80;20910;-61
2021/09/11 02:42:21;;;;;;;19.33;10.27;;;;;;;14.25;77.74;99471.81;1752828;80;20922;-61
2021/09/11 02:44:48;;;;;;;12.18;9.70;;;;;;;14.18;77.79;99467.92;1715461;81;21909;-61
2021/09/11 02:47:14;;;;;;;12.70;11.23;;;;;;;14.18;78.04;99469.23;1704937;82;20934;-61
2021/09/11 02:49:42;;;;;;;14.20;10.67;;;;;;;14.21;78.20;99475.59;1745509;80;21830;-61
2021/09/11 02:52:08;;;;;;;14.25;10.88;;;;;;;14.27;78.29;99469.93;1752270;80;20981;-61
2021/09/11 02:54:35;;;;;;;13.43;10.70;;;;;;;14.31;78.37;99463.07;1709095;81;20996;-61
2021/09/11 02:57:01;;;;;;;16.35;11.00;;;;;;;14.36;78.43;99470.62;1747482;80;20874;-61
2021/09/11 02:59:28;;;;;;;14.77;11.13;;;;;;;14.39;78.46;99471.73;1754585;80;21469;-61
2021/09/11 03:01:55;;;;;;;17.15;11.65;;;;;;;14.33;78.39;99457.22;1755649;80;21424;-61
2021/09/11 03:04:21;;;;;;;16.77;12.20;;;;;;;14.45;78.58;99472.66;1684725;83;20914;-61
2021/09/11 03:06:48;;;;;;;12.03;10.73;;;;;;;14.48;78.58;99471.12;1706814;80;20942;-61
2021/09/11 03:09:14;;;;;;;12.17;10.73;;;;;;;14.51;78.66;99474.86;1747356;80;20934;-61
2021/09/11 03:11:41;;;;;;;13.90;11.18;;;;;;;14.52;78.61;99475.25;1749254;80;21235;-61
2021/09/11 03:14:08;;;;;;;12.67;9.57;;;;;;;14.51;78.53;99468.30;1741830;80;21715;-61
2021/09/11 03:16:34;;;;;;;11.80;10.20;;;;;;;14.42;78.15;99471.52;1746769;79;21480;-61
2021/09/11 03:19:01;;;;;;;12.10;9.83;;;;;;;14.34;78.36;99469.91;1713074;81;20927;-61
2021/09/11 03:21:27;;;;;;;16.83;11.00;;;;;;;14.29;78.50;99471.52;1711601;81;21385;-61
2021/09/11 03:23:54;;;;;;;12.35;10.65;;;;;;;14.26;78.59;99476.14;1764332;80;21452;-61
2021/09/11 03:26:21;;;;;;;18.27;10.93;;;;;;;14.23;78.75;99473.72;1739281;80;21105;-61
2021/09/11 03:28:48;;;;;;;14.43;11.17;;;;;;;14.21;78.79;99466.41;1754925;80;20879;-61
2021/09/11 03:31:14;;;;;;;12.47;11.15;;;;;;;14.18;78.88;99462.67;1749771;80;24725;-61
2021/09/11 03:33:41;;;;;;;19.97;10.97;;;;;;;14.21;79.08;99465.09;1756924;80;20918;-61
2021/09/11 03:36:08;;;;;;;15.90;10.83;;;;;;;14.25;79.18;99465.25;1752554;80;20934;-61
2021/09/11 03:38:34;;;;;;;16.63;11.30;;;;;;;14.29;79.24;99464.95;1753225;79;21293;-61
2021/09/11 03:41:01;;;;;;;15.73;11.90;;;;;;;14.33;79.27;99464.27;1748681;80;20950;-61
2021/09/11 03:43:27;;;;;;;15.80;11.00;;;;;;;14.38;79.33;99463.49;1704159;82;20950;-61
2021/09/11 03:45:54;;;;;;;15.63;12.20;;;;;;;14.40;79.33;99466.03;1748729;80;21424;-61
2021/09/11 03:48:21;;;;;;;13.15;11.70;;;;;;;14.43;79.41;99465.34;1707565;81;20950;-61
2021/09/11 03:50:47;;;;;;;16.70;11.22;;;;;;;14.46;79.51;99459.87;1750780;80;21040;-62
2021/09/11 03:53:14;;;;;;;18.20;12.77;;;;;;;14.47;79.50;99464.17;1751916;80;20923;-61
2021/09/11 03:55:40;;;;;;;19.13;12.33;;;;;;;14.49;79.50;99464.09;1755417;79;20907;-62
2021/09/11 03:58:08;;;;;;;18.87;12.87;;;;;;;14.50;79.53;99466.59;1755107;80;20898;-62
2021/09/11 04:00:35;;;;;;;;;;;;;;;14.52;79.61;99454.23;1753663;80;20934;-61
2021/09/11 04:03:02;;;;;;;17.67;12.03;;;;;;;14.55;79.77;99459.28;1753140;80;21118;-62
2021/09/11 04:05:28;;;;;;;14.40;12.10;;;;;;;14.55;79.68;99457.97;1742303;80;21121;-62
2021/09/11 04:07:55;;;;;;;17.53;12.87;;;;;;;14.57;79.66;99463.61;1730362;81;20890;-62
2021/09/11 04:10:22;;;;;;;14.73;12.03;;;;;;;14.57;79.60;99463.61;1729659;81;20986;-62
2021/09/11 04:12:48;;;;;;;18.73;11.57;;;;;;;14.59;79.73;99453.81;1733850;81;20882;-62
2021/09/11 04:15:15;;;;;;;22.23;12.17;;;;;;;14.57;79.53;99457.04;1725590;81;21060;-62
2021/09/11 04:17:42;;;;;;;24.10;13.20;;;;;;;14.52;79.55;99464.75;1727360;81;21647;-62
2021/09/11 04:20:10;;;;;;;26.57;12.60;;;;;;;14.51;79.62;99463.04;1725877;81;21378;-62
2021/09/11 04:22:36;;;;;;;22.75;11.90;;;;;;;14.51;79.63;99463.04;1727504;82;20875;-62
2021/09/11 04:25:04;;;;;;;37.15;13.15;;;;;;;14.51;79.60;99468.30;1724336;81;20934;-62
2021/09/11 04:27:31;;;;;;;32.40;14.23;;;;;;;14.50;79.55;99465.28;1732293;82;21799;-63
2021/09/11 04:29:58;;;;;;;30.02;13.65;;;;;;;14.51;79.68;99461.73;1732223;81;21483;-62
2021/09/11 04:32:25;;;;;;;27.70;12.97;;;;;;;14.65;79.92;99462.62;1733023;81;20899;-63
2021/09/11 04:34:51;;;;;;;22.37;12.98;;;;;;;14.85;80.00;99452.05;1729130;82;20884;-62
2021/09/11 04:37:21;;;;;;;20.33;12.00;;;;;;;15.07;79.98;99461.88;1728992;82;20930;-62
2021/09/11 04:39:48;;;;;;;17.70;12.05;;;;;;;15.33;80.03;99454.81;1737504;81;21122;-62
2021/09/11 04:42:15;;;;;;;24.55;12.15;;;;;;;15.60;79.95;99461.17;1730088;81;21454;-62
2021/09/11 04:44:43;;;;;;;14.00;11.38;;;;;;;15.84;79.94;99468.64;1735047;81;21517;-62
2021/09/11 04:47:09;;;;;;;22.05;11.43;;;;;;;16.06;79.74;99464.44;1724229;81;21546;-61
2021/09/11 04:49:36;;;;;;;15.05;11.22;;;;;;;16.21;79.65;99452.75;1708889;81;20957;-62
2021/09/11 04:52:05;;;;;;;16.05;10.70;;;;;;;16.39;79.59;99456.30;1718764;81;22004;-62
2021/09/11 04:54:32;;;;;;;16.62;11.80;;;;;;;16.81;79.89;99465.88;1712626;81;20951;-62
2021/09/11 04:56:59;;;;;;;20.60;12.23;;;;;;;17.21;79.84;99467.06;1720649;81;20922;-62
2021/09/11 04:59:25;;;;;;;21.02;11.57;;;;;;;17.60;79.53;99455.61;1716042;82;20975;-62
2021/09/11 05:01:52;;;;;;;22.73;11.73;;;;;;;18.04;79.22;99460.92;1718385;81;21483;-62
2021/09/11 05:04:19;;;;;;;27.20;12.05;;;;;;;18.50;79.17;99461.87;1716736;81;21687;-62
2021/09/11 05:06:45;;;;;;;39.35;12.82;;;;;;;18.89;79.05;99459.48;1713792;81;20867;-61
2021/09/11 05:09:12;;;;;;;30.10;11.43;;;;;;;19.34;78.48;99452.47;1724394;81;20892;-62
2021/09/11 05:11:39;;;;;;;39.10;12.43;;;;;;;19.61;77.96;99454.99;1723848;81;21430;-61
2021/09/11 05:14:05;;;;;;;25.40;11.43;;;;;;;19.80;77.58;99455.52;1724694;81;20950;-62
2021/09/11 05:16:32;;;;;;;22.52;11.05;;;;;;;20.00;77.48;99454.58;1714081;81;21064;-61
2021/09/11 05:18:59;;;;;;;25.50;10.93;;;;;;;20.45;78.01;99459.78;1708462;81;21467;-61
2021/09/11 05:21:26;;;;;;;31.42;11.70;;;;;;;20.93;77.50;99464.16;1711769;81;20949;-62
2021/09/11 05:23:53;;;;;;;62.13;12.85;;;;;;;21.20;76.71;99468.17;1716518;81;20943;-63
2021/09/11 05:26:19;;;;;;;28.75;10.48;;;;;;;21.37;76.58;99461.73;1727534;81;20915;-62
2021/09/11 05:28:46;;;;;;;;;;;;;;;21.50;76.05;99456.91;1723618;82;21146;-61
2021/09/11 05:31:13;;;;;;;21.52;10.10;;;;;;;21.62;75.55;99458.39;1728723;81;28059;-61
2021/09/11 05:33:40;;;;;;;30.35;10.70;;;;;;;21.71;75.65;99462.47;1733531;81;21069;-60
2021/09/11 05:36:06;;;;;;;25.50;10.93;;;;;;;21.93;75.80;99459.37;1721927;81;20934;-62
2021/09/11 05:38:34;;;;;;;36.58;11.12;;;;;;;22.22;75.92;99456.99;1732387;82;26911;-62
2021/09/11 05:41:00;;;;;;;33.67;12.05;;;;;;;22.52;75.37;99448.58;1724313;82;21083;-62
2021/09/11 05:43:27;;;;;;;30.90;9.73;;;;;;;22.55;74.57;99452.25;1725023;81;20952;-62
2021/09/11 05:45:54;;;;;;;34.38;11.30;;;;;;;22.37;74.30;99451.45;1725851;81;20935;-62
2021/09/11 05:48:20;;;;;;;40.00;11.57;;;;;;;22.25;74.56;99454.02;1724523;81;20915;-62
2021/09/11 05:50:47;;;;;;;26.75;10.93;;;;;;;22.61;74.86;99453.45;1727361;81;20974;-62
2021/09/11 05:53:14;;;;;;;23.38;9.40;;;;;;;22.93;74.36;99448.81;1727138;81;21504;-62
2021/09/11 05:55:40;;;;;;;15.40;10.20;;;;;;;23.21;73.82;99444.64;1724855;81;20954;-63
2021/09/11 05:58:07;;;;;;;10.85;9.78;;;;;;;23.33;73.51;99442.05;1726058;81;27489;-62
2021/09/11 06:00:34;;;;;;;14.25;10.10;;;;;;;23.29;72.63;99443.84;1682212;83;20931;-62
2021/09/11 06:03:01;;;;;;;11.10;9.55;;;;;;;23.12;72.92;99449.61;1673315;84;20955;-63
2021/09/11 06:05:27;;;;;;;13.45;10.53;;;;;;;23.12;72.57;99446.95;1669873;82;21064;-63
2021/09/11 06:07:54;;;;;;;18.35;10.38;;;;;;;23.29;73.19;99447.84;1686930;82;24174;-62
2021/09/11 06:10:21;;;;;;;15.18;9.63;;;;;;;23.62;72.63;99447.45;1737166;81;20937;-62
2021/09/11 06:12:47;;;;;;;15.38;9.50;;;;;;;23.93;72.57;99434.88;1731291;81;20943;-62
2021/09/11 06:15:15;;;;;;;15.23;9.43;;;;;;;24.28;72.40;99439.03;1734050;81;21093;-62
2021/09/11 06:17:42;;;;;;;16.05;10.18;;;;;;;24.47;71.54;99443.22;1729306;81;21033;-63
2021/09/11 06:20:10;;;;;;;17.82;10.10;;;;;;;24.81;71.69;99442.16;1737693;81;20995;-64
2021/09/11 06:22:37;;;;;;;13.68;9.35;;;;;;;25.11;71.64;99445.91;1707873;80;20974;-62
2021/09/11 06:25:04;;;;;;;;;;;;;;;25.40;71.02;99439.95;1735101;80;20913;-62
2021/09/11 06:27:30;;;;;;;14.50;8.98;;;;;;;25.59;70.42;99444.86;1739050;80;20104;-62
2021/09/11 06:29:57;;;;;;;15.70;9.15;;;;;;;25.81;70.94;99445.89;1738153;80;21511;-62
2021/09/11 06:32:23;;;;;;;;;;;;;;;26.02;70.11;99448.45;1741696;80;20931;-63
2021/09/11 06:34:49;;;;;;;;;;;;;;;26.21;69.25;99448.47;1744190;80;20124;-63
2021/09/11 06:37:16;;;;;;;11.95;8.13;;;;;;;26.34;69.35;99446.02;1739373;80;20440;-63
2021/09/11 06:39:43;;;;;;;12.85;8.60;;;;;;;26.54;69.56;99439.16;1737818;80;20945;-62
2021/09/11 06:42:09;;;;;;;;;;;;;;;26.70;68.98;99438.17;1740234;80;21083;-62
2021/09/11 06:44:36;;;;;;;14.13;8.70;;;;;;;26.83;68.39;99440.23;1739431;80;20091;-62
2021/09/11 06:47:02;;;;;;;;;;;;;;;26.74;68.59;99443.98;1740861;80;21441;-62
2021/09/11 06:49:29;;;;;;;13.58;8.10;;;;;;;26.78;67.54;99450.66;1738166;80;20627;-63
2021/09/11 06:51:55;;;;;;;12.47;8.65;;;;;;;26.93;68.01;99448.80;1739952;80;20969;-63
2021/09/11 06:54:22;;;;;;;;;;;;;;;27.19;67.73;99450.20;1737403;80;21048;-63
2021/09/11 06:56:50;;;;;;;9.33;8.30;;;;;;;27.20;66.85;99446.52;1738683;80;20152;-63
2021/09/11 06:59:17;;;;;;;12.05;9.25;;;;;;;27.21;67.04;99451.67;1732574;80;20917;-63
2021/09/11 07:01:44;;;;;;;17.30;8.08;;;;;;;27.32;66.70;99446.86;1743513;80;21833;-63
2021/09/11 07:04:11;;;;;;;9.58;8.45;;;;;;;27.21;65.89;99448.17;1729413;80;20923;-62
2021/09/11 07:06:37;;;;;;;;;;;;;;;27.11;66.05;99442.22;1726467;81;21047;-62
2021/09/11 07:09:04;;;;;;;15.38;9.35;;;;;;;26.96;65.46;99456.46;1720603;81;20123;-62
2021/09/11 07:11:31;;;;;;;20.30;8.90;;;;;;;26.79;65.65;99451.80;1731786;81;21491;-62
2021/09/11 07:13:57;;;;;;;;;;;;;;;26.61;65.32;99454.48;1735693;81;20903;-62
2021/09/11 07:16:24;;;;;;;13.83;9.33;;;;;;;26.39;65.23;99461.55;1730936;81;20171;-62
2021/09/11 07:18:50;;;;;;;;;;;;;;;26.28;65.38;99465.48;1735409;82;21042;-62
2021/09/11 07:21:17;;;;;;;;;;;;;;;26.16;65.30;99462.89;1725739;81;20095;-62
2021/09/11 07:23:43;;;;;;;20.70;10.08;;;;;;;26.00;64.70;99466.03;1711052;82;20091;-62
2021/09/11 07:26:11;;;;;;;15.05;10.28;;;;;;;25.84;65.04;99466.14;1668403;83;20972;-62
2021/09/11 07:28:38;;;;;;;18.40;10.45;;;;;;;25.78;64.96;99468.98;1706266;81;20943;-61
2021/09/11 07:31:05;;;;;;;12.03;10.72;;;;;;;25.75;64.52;99464.50;1723430;81;24251;-62
2021/09/11 07:33:31;;;;;;;16.12;10.45;;;;;;;25.70;64.76;99465.53;1723199;81;21449;-62
2021/09/11 07:35:58;;;;;;;13.08;10.72;;;;;;;25.86;65.09;99469.47;1719662;82;20972;-61
2021/09/11 07:38:25;;;;;;;14.87;10.00;;;;;;;25.84;64.61;99471.48;1718172;81;21795;-62
2021/09/11 07:40:51;;;;;;;14.07;11.20;;;;;;;25.95;64.41;99477.76;1735663;81;26784;-61
2021/09/11 07:43:18;;;;;;;12.55;10.00;;;;;;;25.92;64.18;99476.78;1739284;81;25772;-61
2021/09/11 07:45:46;;;;;;;13.40;9.83;;;;;;;26.01;64.55;99471.69;1728281;81;20969;-62
2021/09/11 07:48:12;;;;;;;16.60;10.72;;;;;;;26.15;64.20;99470.59;1722381;81;21580;-62
2021/09/11 07:50:39;;;;;;;34.45;12.05;;;;;;;26.03;63.83;99475.55;1723147;81;20919;-61
2021/09/11 07:53:06;;;;;;;16.77;11.43;;;;;;;25.94;63.92;99474.77;1724638;81;20950;-62
2021/09/11 07:55:33;;;;;;;13.80;10.65;;;;;;;25.99;63.64;99472.41;1718467;81;21446;-61
2021/09/11 07:58:00;;;;;;;16.23;11.38;;;;;;;25.96;63.69;99475.40;1708309;81;20930;-62
2021/09/11 08:00:27;;;;;;;18.30;11.03;;;;;;;25.98;63.53;99477.91;1723644;81;20914;-61
2021/09/11 08:02:54;;;;;;;18.73;11.38;;;;;;;26.09;63.90;99472.97;1724988;81;20903;-62
2021/09/11 08:05:20;;;;;;;26.02;12.33;;;;;;;26.10;63.10;99480.01;1722347;81;21036;-62
2021/09/11 08:07:49;;;;;;;13.30;11.45;;;;;;;26.09;63.42;99483.67;1731264;80;21907;-61
2021/09/11 08:10:17;;;;;;;13.00;10.23;;;;;;;26.18;63.53;99478.27;1740135;80;21504;-62
2021/09/11 08:12:44;;;;;;;14.85;10.68;;;;;;;26.37;63.51;99483.13;1740538;80;21777;-61
2021/09/11 08:15:11;;;;;;;15.00;10.50;;;;;;;26.60;63.27;99479.61;1748743;80;21453;-62
2021/09/11 08:17:38;;;;;;;20.90;11.73;;;;;;;26.68;62.85;99476.86;1749047;80;20891;-61
2021/09/11 08:20:06;;;;;;;16.80;10.55;;;;;;;26.55;62.73;99483.68;1737569;78;24309;-61
2021/09/11 08:22:33;;;;;;;13.68;10.80;;;;;;;26.63;62.82;99481.92;1735840;80;20958;-62
2021/09/11 08:24:59;;;;;;;19.50;11.85;;;;;;;26.73;62.88;99474.47;1742735;80;20954;-62
2021/09/11 08:27:26;;;;;;;20.85;10.58;;;;;;;26.83;62.77;99469.69;1748442;80;20870;-61
2021/09/11 08:29:53;;;;;;;16.42;10.18;;;;;;;26.71;62.04;99477.83;1745758;80;21025;-62
2021/09/11 08:32:19;;;;;;;12.68;9.73;;;;;;;26.69;62.50;99479.85;1734828;80;21085;-62
2021/09/11 08:34:46;;;;;;;14.20;10.70;;;;;;;26.71;62.25;99481.84;1748267;80;21531;-61
2021/09/11 08:37:12;;;;;;;10.88;9.88;;;;;;;26.75;62.40;99485.84;1740834;81;21485;-62
2021/09/11 08:39:39;;;;;;;16.40;11.12;;;;;;;26.96;62.36;99477.06;1728859;80;21026;-62
2021/09/11 08:42:06;;;;;;;13.75;10.68;;;;;;;27.15;62.33;99479.70;1727841;80;22320;-62
2021/09/11 08:44:32;;;;;;;;;;;;;;;27.36;62.14;99473.13;1749627;80;21878;-62
2021/09/11 08:46:58;;;;;;;;;;;;;;;27.25;61.29;99474.91;1753008;79;20123;-62
2021/09/11 08:49:25;;;;;;;14.83;10.03;;;;;;;27.41;61.78;99481.41;1737231;80;20121;-61
2021/09/11 08:51:52;;;;;;;18.52;9.88;;;;;;;27.62;61.85;99478.48;1752591;80;20971;-61
2021/09/11 08:54:21;;;;;;;;;;;;;;;27.76;61.70;99468.22;1741661;79;20946;-62
2021/09/11 08:56:50;;;;;;;16.97;10.23;;;;;;;28.03;61.25;99465.82;1742619;80;21862;-62
2021/09/11 08:59:20;;;;;;;12.40;9.48;;;;;;;28.11;61.33;99465.69;1743077;80;20942;-62
2021/09/11 09:02:10;;;;;;;14.90;8.38;;;;;;;28.22;61.20;99467.86;1749414;80;20916;-62
2021/09/11 09:04:52;;;;;;;31.80;9.58;;;;;;;28.19;60.88;99466.91;1742434;80;21026;-62
2021/09/11 09:07:43;;;;;;;39.85;9.95;;;;;;;28.25;60.75;99467.47;1740802;80;20922;-62
2021/09/11 09:10:14;;;;;;;10.38;8.20;;;;;;;28.34;60.70;99466.33;1734798;80;21178;-62
2021/09/11 09:12:44;;;;;;;11.18;8.05;;;;;;;28.57;60.58;99467.98;1753718;80;20923;-62
2021/09/11 09:15:14;;;;;;;14.65;7.25;;;;;;;28.76;60.28;99472.67;1739784;80;20918;-62
2021/09/11 09:17:50;;;;;;;8.78;6.55;;;;;;;28.94;60.01;99468.64;1736218;80;21438;-62
2021/09/11 09:20:27;;;;;;;11.03;6.33;;;;;;;29.11;59.86;99459.25;1730960;80;20919;-62
2021/09/11 09:23:07;;;;;;;17.05;7.55;;;;;;;29.26;59.24;99460.45;1732331;80;21026;-62
2021/09/11 09:25:36;;;;;;;10.13;7.78;;;;;;;29.35;59.31;99461.11;1729646;80;21461;-62
2021/09/11 09:28:07;;;;;;;38.67;9.45;;;;;;;29.28;58.67;99466.98;1738638;80;20939;-62
2021/09/11 09:30:47;;;;;;;11.75;6.55;;;;;;;29.08;58.19;99470.92;1724618;82;20954;-62
2021/09/11 09:33:20;;;;;;;15.15;6.70;;;;;;;28.84;58.51;99465.47;1729729;80;20930;-62
2021/09/11 09:35:49;;;;;;;26.27;7.62;;;;;;;28.76;58.23;99464.61;1724954;80;21098;-62
2021/09/11 09:38:18;;;;;;;17.10;6.95;;;;;;;28.52;57.79;99471.77;1714670;81;20915;-62
2021/09/11 09:40:51;;;;;;;15.65;7.40;;;;;;;28.32;57.83;99466.20;1726349;82;20946;-62
2021/09/11 09:43:38;;;;;;;9.80;6.50;;;;;;;28.31;58.02;99464.01;1750000;80;21370;-62
2021/09/11 09:46:11;;;;;;;27.70;7.85;;;;;;;28.54;57.94;99468.38;1739289;80;20895;-62
2021/09/11 09:48:39;;;;;;;10.05;6.35;;;;;;;28.52;57.54;99465.88;1726772;80;21781;-62
2021/09/11 09:51:10;;;;;;;10.45;7.05;;;;;;;28.45;56.80;99469.53;1733129;80;21461;-62
2021/09/11 09:53:40;;;;;;;27.00;7.80;;;;;;;28.40;57.21;99467.41;1744968;80;21426;-61
2021/09/11 09:56:07;;;;;;;16.02;6.92;;;;;;;28.53;57.26;99466.70;1753618;80;20891;-62
2021/09/11 09:58:35;;;;;;;16.85;7.03;;;;;;;28.64;57.12;99464.81;1740370;80;20954;-62
2021/09/11 10:01:03;;;;;;;7.55;5.92;;;;;;;28.77;56.99;99468.95;1736714;80;20966;-62
2021/09/11 10:03:30;;;;;;;9.48;6.10;;;;;;;28.83;56.51;99473.22;1753379;79;21052;-62
2021/09/11 10:06:14;;;;;;;13.70;7.17;;;;;;;28.59;56.15;99465.91;1738963;79;20879;-62
2021/09/11 10:08:52;;;;;;;11.68;7.00;;;;;;;28.37;56.09;99470.45;1757893;79;20965;-62
2021/09/11 10:11:19;;;;;;;16.40;7.28;;;;;;;28.25;56.24;99463.44;1760776;79;21930;-62
2021/09/11 10:14:01;;;;;;;19.62;7.60;;;;;;;28.12;56.14;99462.01;1755449;79;20990;-62
2021/09/11 10:16:37;;;;;;;9.95;5.80;;;;;;;28.06;56.10;99460.92;1753583;79;21056;-62
2021/09/11 10:19:19;;;;;;;11.45;5.90;;;;;;;28.20;56.16;99448.42;1762181;79;21004;-62
2021/09/11 10:21:49;;;;;;;11.15;5.33;;;;;;;28.31;56.04;99449.23;1760214;79;20939;-62
2021/09/11 10:24:25;;;;;;;8.63;5.45;;;;;;;28.41;56.01;99447.58;1754013;79;20914;-62
2021/09/11 10:27:08;;;;;;;18.85;5.10;;;;;;;28.45;55.75;99450.73;1740176;79;20999;-62
2021/09/11 10:29:37;;;;;;;17.27;5.45;;;;;;;28.21;55.50;99456.81;1746949;79;20921;-62
2021/09/11 10:32:15;;;;;;;7.95;5.08;;;;;;;28.04;55.48;99453.56;1769507;79;20957;-62
2021/09/11 10:34:54;;;;;;;5.22;4.70;;;;;;;27.70;55.01;99456.91;1756380;79;20925;-61
2021/09/11 10:37:37;;;;;;;52.80;8.50;;;;;;;27.27;55.19;99460.81;1758712;79;20965;-61
2021/09/11 10:40:36;;;;;;;24.18;6.90;;;;;;;27.04;55.29;99460.08;1757155;79;21058;-61
2021/09/11 10:43:11;;;;;;;26.10;6.78;;;;;;;26.86;55.37;99457.27;1757883;79;20989;-61
2021/09/11 10:45:54;;;;;;;14.65;6.42;;;;;;;26.71;55.38;99452.39;1749402;79;21523;-62
2021/09/11 10:48:45;;;;;;;32.98;8.15;;;;;;;26.56;55.61;99447.84;1749756;79;20906;-62
2021/09/11 10:51:23;;;;;;;12.25;5.97;;;;;;;26.68;55.85;99446.06;1751552;79;21479;-62
2021/09/11 10:54:13;;;;;;;9.33;5.70;;;;;;;26.71;55.78;99441.67;1771118;79;21028;-61
2021/09/11 10:56:52;;;;;;;11.60;6.62;;;;;;;26.66;55.74;99442.22;1762939;79;20941;-62
2021/09/11 10:59:23;;;;;;;27.15;7.22;;;;;;;26.66;55.97;99438.71;1766126;79;21467;-62
2021/09/11 11:02:25;;;;;;;19.60;6.08;;;;;;;26.73;56.00;99430.28;1747271;79;20871;-61
2021/09/11 11:05:10;;;;;;;9.08;5.92;;;;;;;26.75;56.05;99426.92;1723230;81;20914;-62
2021/09/11 11:07:47;;;;;;;7.92;5.60;;;;;;;26.99;56.41;99423.11;1708167;82;21041;-61
2021/09/11 11:10:18;;;;;;;12.15;5.92;;;;;;;27.41;56.42;99410.36;1739143;80;21038;-62
2021/09/11 11:12:49;;;;;;;7.10;5.22;;;;;;;27.92;56.63;99407.30;1724055;81;20911;-61
2021/09/11 11:15:25;;;;;;;10.08;5.85;;;;;;;28.38;56.36;99393.45;1720063;81;20942;-62
2021/09/11 11:17:54;;;;;;;6.65;5.67;;;;;;;28.65;56.10;99396.66;1730609;81;20915;-62
2021/09/11 11:20:29;;;;;;;11.25;6.33;;;;;;;28.73;55.61;99392.44;1743879;81;21974;-62
2021/09/11 11:23:02;;;;;;;12.15;5.78;;;;;;;28.51;55.57;99395.75;1675375;85;20902;-62
2021/09/11 11:25:38;;;;;;;6.55;5.50;;;;;;;28.50;55.79;99391.90;1730171;81;20927;-62
2021/09/11 11:28:09;;;;;;;6.65;5.67;;;;;;;28.45;55.42;99388.97;1730120;81;20942;-62
2021/09/11 11:30:42;;;;;;;8.30;5.30;;;;;;;28.28;55.40;99395.94;1682761;82;20916;-62
2021/09/11 11:33:09;;;;;;;12.63;6.12;;;;;;;28.17;55.33;99394.30;1711107;83;21906;-62